Airfield :
LOGIN :

Register | Disclaimer

   EN    FR    IT 

 










Legend :    VFR   Marginal VFR   IFR   Intensive IFR   Very Intensive IFR
Visi :
Ceiling :
>= 8 km
>= 3000ft
5 to 8 km
1000 to 3000 ft
1500m to 5 km
500 to 1000 ft
800 to 1500m
200 to 500 ft
< 800m
< 200 ft
Symbols :   Thunderstorms  Fog  Heavy snow  Heavy precipitations  Wind > 20 kt
SIGMETs :     Misc.  Thunderstorms  Icing  Turbulence  Mountain Waves  Volcanic Ashes







- Airport Elevation : 20 ft
- IATA code : BJA


DAAE - Soummam - Bejaia

CURRENT METAR :
  • 201900Z 36004KT 8000 FEW008 SCT016 BKN030 17/15 Q1010

EXPIRED METARs :
  • 201800Z 32005KT 8000 FEW008 SCT016 BKN030 17/15 Q1010
  • 201700Z 09003KT 8000 FEW013 SCT016 BKN030 18/16 Q1010
  • 201600Z 13008KT 8000 FEW013 SCT020 BKN033 18/15 Q1009

TAF TAF DAAE
Valid from the 20 at 18:00 until the 21 at 18:00 UTC


201700Z 2018/2118 32012KT 8000 FEW013 SCT020 BKN030
PROB30
TEMPO 2018/2021 5000 FEW023TCU
BECMG 2023/2101 26008KT
PROB40
TEMPO 2100/2107 3000 -DZ BR BKN015
BECMG 2109/2112 33012KT
PROB30
TEMPO 2112/2118 FEW023TCU
No reported NOTAMs for that airfield.



MET'MAP, your aeronautical weather chart ! - Copyright ORBIFLY December 2007 - Disclaimer

ORBIFLY MET'MAP TEAM :

Programming & Development : Alexandra Zaïnal
Concept & Development : Baudouin d'Aumeries
Co-Development & Prog : Marc-Olivier Méhu
Technical & hardware support : Manuel Goepfert

Contact : metmap@orbifly.com




SOURCES & CREDITS :

   NOAA